Aegean Navigator — SWBI — position and weather

sailwx.info

Track history (hours):
 
Tides and Currents Weather Stations Pressure Air Temp Water Temp Dewpoint Dewpoint Depression Visibility Wind Speed Wind Dir Waves Ship Positions

Aegean Navigator

Last reported at 2014-Aug-06 16:33 UTC. Time now 2014-Aug-20 10:45 UTC.
Position N 50°31' W 001°06'.
Warning: this ship's position is 13 days out of date.

Length 274 m; draft 9 m.

Type: Ship. MMSI: 240634000.

Date/timePositionNaut miles runAvg speedWind from/ knotsBaromVisibWave heightAir tempDewpointWater temp
2014-Aug-06 16:33N 50°31' W 001°06'6 6.1
2014-Aug-06 15:31N 50°36' W 001°01'0 0.1
2014-Aug-06 14:31N 50°36' W 001°01'0 0.1
2014-Aug-06 13:31N 50°36' W 001°01'0 0.0
2014-Aug-06 12:31N 50°36' W 001°01'0 0.1
2014-Aug-06 11:31N 50°36' W 001°01'0 0.2
2014-Aug-06 10:31N 50°36' W 001°01'0 0.1
2014-Aug-06 09:31N 50°36' W 001°01'0 0.1
2014-Aug-06 08:31N 50°36' W 001°01'0 0.0
2014-Aug-06 07:31N 50°36' W 001°01'0 0.1
2014-Aug-06 06:33N 50°36' W 001°01'6 6.2
2014-Aug-06 05:33N 50°42' W 000°58'1313.0
2014-Aug-06 04:33N 50°47' W 001°18'4 3.8
2014-Aug-06 03:32N 50°50' W 001°20'0 0.0
2014-Aug-06 02:32N 50°50' W 001°20'0 0.0
2014-Aug-06 01:32N 50°50' W 001°20'0 0.0
2014-Aug-06 00:32N 50°50' W 001°20'0 0.0
2014-Aug-05 23:33N 50°50' W 001°20'0 0.0
2014-Aug-05 22:32N 50°50' W 001°20'0 0.0
2014-Aug-05 21:32N 50°50' W 001°20'0 0.0
2014-Aug-05 20:32N 50°50' W 001°20'0 0.0
2014-Aug-05 19:32N 50°50' W 001°20'0 0.0
2014-Aug-05 18:32N 50°50' W 001°20'0 0.0
2014-Aug-05 17:32N 50°50' W 001°20'0 0.0
2014-Aug-05 16:32N 50°50' W 001°20'0 0.0
2014-Aug-05 15:32N 50°50' W 001°20'0 0.0
2014-Aug-05 14:32N 50°50' W 001°20'0 0.0
2014-Aug-05 13:32N 50°50' W 001°20'0 0.0
2014-Aug-05 12:32N 50°50' W 001°20'0 0.0
2014-Aug-05 11:32N 50°50' W 001°20'0 0.1
2014-Aug-05 10:32N 50°50' W 001°20'0 0.0
2014-Aug-05 09:32N 50°50' W 001°20'0 0.0
2014-Aug-05 08:32N 50°50' W 001°20'0 0.0
2014-Aug-05 07:32N 50°50' W 001°20'0 0.0
2014-Aug-05 06:32N 50°50' W 001°20'0 0.0
2014-Aug-05 05:32N 50°50' W 001°20'0 0.0
2014-Aug-05 04:32N 50°50' W 001°20'0 0.0
2014-Aug-05 03:33N 50°50' W 001°20'0 0.0
2014-Aug-05 02:32N 50°50' W 001°20'0 0.0
2014-Aug-05 01:33N 50°50' W 001°20'0 0.0
2014-Aug-05 00:32N 50°50' W 001°20'0 0.0
2014-Aug-04 23:33N 50°50' W 001°20'0 0.0
2014-Aug-04 22:32N 50°50' W 001°20'0 0.0
2014-Aug-04 21:32N 50°50' W 001°20'0 0.0
2014-Aug-04 20:32N 50°50' W 001°20'0 0.0
2014-Aug-04 19:32N 50°50' W 001°20'0 0.0
2014-Aug-04 18:32N 50°50' W 001°20'0 0.0
2014-Aug-04 17:32N 50°50' W 001°20'0 0.1
2014-Aug-04 16:32N 50°50' W 001°19'2 2.4
2014-Aug-04 15:33N 50°48' W 001°18'5 5.4
2014-Aug-04 14:34N 50°46' W 001°10'9 8.9
2014-Aug-04 13:34N 50°42' W 000°57'6 6.5
2014-Aug-04 12:34N 50°36' W 000°60'1 0.4
2014-Aug-04 09:31N 50°36' W 001°01'0 0.1
2014-Aug-04 08:31N 50°36' W 001°01'0 0.0
2014-Aug-04 07:31N 50°36' W 001°01'0 0.0
2014-Aug-04 06:31N 50°36' W 001°01'0 0.0
2014-Aug-04 05:31N 50°36' W 001°01'0 0.0
2014-Aug-04 04:31N 50°36' W 001°01'0 0.0
2014-Aug-03 21:16N 50°36' W 001°01'0 0.4
2014-Aug-03 20:31N 50°36' W 001°01'0 0.1
2014-Aug-03 19:31N 50°36' W 001°01'0 0.0
2014-Aug-03 17:25N 50°36' W 001°01'0 0.1
2014-Aug-03 11:28N 50°36' W 001°01'0 0.0
2014-Aug-03 10:31N 50°36' W 001°01'0 0.0
2014-Aug-03 09:31N 50°36' W 001°01'0 0.3
2014-Aug-03 08:31N 50°36' W 001°01'0 0.1
2014-Aug-03 07:31N 50°36' W 001°01'0 0.0
2014-Aug-03 06:31N 50°36' W 001°01'0 0.0
2014-Aug-03 05:31N 50°36' W 001°02'0 0.0
2014-Aug-03 04:31N 50°36' W 001°02'0 0.2
2014-Aug-03 03:31N 50°36' W 001°01'0 0.3
2014-Aug-03 02:31N 50°36' W 001°01'0 0.0
2014-Aug-03 01:31N 50°36' W 001°01'0 0.0
2014-Aug-03 00:25N 50°36' W 001°01'0 0.0
2014-Aug-02 23:31N 50°36' W 001°01'0 0.0
2014-Aug-02 22:31N 50°36' W 001°01'0 0.0
2014-Aug-02 21:31N 50°36' W 001°01'0 0.1
2014-Aug-02 20:31N 50°36' W 001°01'0 0.3
2014-Aug-02 19:31N 50°36' W 001°01'0 0.0
2014-Aug-02 18:31N 50°36' W 001°01'0 0.0
2014-Aug-02 17:31N 50°36' W 001°01'0 0.0
2014-Aug-02 16:31N 50°36' W 001°01'0 0.0
2014-Aug-02 15:31N 50°36' W 001°01'0 0.3
2014-Aug-02 14:31N 50°36' W 001°01'0 0.1
2014-Aug-02 13:31N 50°36' W 001°01'0 0.0
2014-Aug-02 12:31N 50°36' W 001°01'0 0.0
2014-Aug-02 11:31N 50°36' W 001°01'0 0.0
2014-Aug-02 10:31N 50°36' W 001°01'0 0.1
2014-Aug-02 09:31N 50°36' W 001°01'0 0.1
2014-Aug-02 08:31N 50°36' W 001°01'0 0.3
2014-Aug-02 07:31N 50°36' W 001°01'0 0.0
2014-Aug-02 06:31N 50°36' W 001°01'0 0.0
2014-Aug-02 05:31N 50°36' W 001°01'0 0.0
2014-Aug-02 04:31N 50°36' W 001°01'0 0.0
2014-Aug-02 03:31N 50°36' W 001°01'0 0.1
2014-Aug-02 02:31N 50°36' W 001°01'0 0.3
2014-Aug-02 01:31N 50°36' W 001°01'0 0.0
2014-Aug-02 00:31N 50°36' W 001°01'0 0.0
2014-Aug-01 23:31N 50°36' W 001°01'0 0.0
2014-Aug-01 22:31N 50°36' W 001°01'0 0.0
2014-Aug-01 21:31N 50°36' W 001°01'0 0.1
2014-Aug-01 20:31N 50°36' W 001°01'0 0.3
2014-Aug-01 19:31N 50°36' W 001°01'0 0.0
2014-Aug-01 18:31N 50°36' W 001°01'0 0.0
2014-Aug-01 17:31N 50°36' W 001°01'0 0.0
2014-Aug-01 16:31N 50°36' W 001°01'0 0.0
2014-Aug-01 15:31N 50°36' W 001°01'0 0.1
2014-Aug-01 14:31N 50°36' W 001°01'0 0.3
2014-Aug-01 13:31N 50°36' W 001°01'0 0.0
2014-Aug-01 12:31N 50°36' W 001°01'0 0.1
2014-Aug-01 11:28N 50°36' W 001°01'0 0.0
2014-Aug-01 10:31N 50°36' W 001°01'0 0.0
2014-Aug-01 09:31N 50°36' W 001°01'0 0.0
2014-Aug-01 08:31N 50°36' W 001°01'0 0.3
2014-Aug-01 07:31N 50°36' W 001°01'0 0.1
2014-Aug-01 06:31N 50°36' W 001°01'0 0.0
2014-Aug-01 05:31N 50°36' W 001°01'0 0.0
2014-Aug-01 04:31N 50°36' W 001°02'0 0.0
2014-Aug-01 03:31N 50°36' W 001°02'0 0.0
2014-Aug-01 02:31N 50°36' W 001°01'0 0.4
2014-Aug-01 01:31N 50°36' W 001°01'0 0.0
2014-Aug-01 00:31N 50°36' W 001°01'0 0.0
2014-Jul-31 23:28N 50°36' W 001°01'0 0.0
2014-Jul-31 22:31N 50°36' W 001°01'0 0.0
2014-Jul-31 21:31N 50°36' W 001°01'0 0.0
2014-Jul-31 20:31N 50°36' W 001°01'0 0.2
2014-Jul-31 19:31N 50°36' W 001°01'0 0.3
2014-Jul-31 18:31N 50°36' W 001°01'0 0.0
2014-Jul-31 17:28N 50°36' W 001°01'0 0.0
2014-Jul-31 16:31N 50°36' W 001°01'0 0.0
2014-Jul-31 15:31N 50°36' W 001°01'0 0.0
2014-Jul-31 14:31N 50°36' W 001°01'0 0.3
2014-Jul-31 13:13N 50°36' W 001°01'0 0.0
2014-Jul-31 12:31N 50°36' W 001°01'0 0.1
2014-Jul-31 11:31N 50°36' W 001°01'0 0.0
2014-Jul-31 10:31N 50°36' W 001°01'0 0.0
2014-Jul-31 09:28N 50°36' W 001°01'0 0.0
2014-Jul-31 08:28N 50°36' W 001°01'0 0.3
2014-Jul-31 07:31N 50°36' W 001°01'0 0.2
2014-Jul-31 06:31N 50°36' W 001°02'0 0.0
2014-Jul-31 05:31N 50°36' W 001°02'0 0.0
2014-Jul-31 04:31N 50°36' W 001°02'0 0.0
2014-Jul-31 03:31N 50°36' W 001°02'0 0.0
2014-Jul-31 02:31N 50°36' W 001°02'0 0.1
2014-Jul-31 01:31N 50°36' W 001°01'0 0.3
2014-Jul-31 00:31N 50°36' W 001°01'0 0.1
2014-Jul-30 23:31N 50°36' W 001°01'0 0.0
2014-Jul-30 22:31N 50°36' W 001°01'0 0.1
2014-Jul-30 21:31N 50°36' W 001°01'0 0.0
2014-Jul-30 20:31N 50°36' W 001°01'0 0.0
2014-Jul-30 19:31N 50°36' W 001°01'0 0.3
2014-Jul-30 18:31N 50°36' W 001°01'0 0.1
2014-Jul-30 17:31N 50°36' W 001°01'0 0.0
2014-Jul-30 16:28N 50°36' W 001°02'0 0.0
2014-Jul-30 15:31N 50°36' W 001°02'0 0.0
2014-Jul-30 14:31N 50°36' W 001°02'0 0.0
2014-Jul-30 13:31N 50°36' W 001°02'0 0.3
2014-Jul-30 12:31N 50°36' W 001°01'0 0.0
2014-Jul-30 11:28N 50°36' W 001°01'0 0.0
2014-Jul-30 10:31N 50°36' W 001°01'0 0.0
2014-Jul-30 09:31N 50°36' W 001°01'0 0.1
2014-Jul-30 08:31N 50°36' W 001°01'0 0.0
2014-Jul-30 07:31N 50°36' W 001°01'0 0.3
2014-Jul-30 06:31N 50°36' W 001°01'0 0.1
2014-Jul-30 05:31N 50°36' W 001°02'0 0.0
2014-Jul-30 04:31N 50°36' W 001°02'0 0.0
2014-Jul-30 03:31N 50°36' W 001°02'0 0.0
2014-Jul-30 02:31N 50°36' W 001°02'0 0.1
2014-Jul-30 01:31N 50°36' W 001°02'0 0.2
2014-Jul-30 00:31N 50°36' W 001°01'0 0.3
2014-Jul-29 23:31N 50°36' W 001°01'0 0.0
2014-Jul-29 22:31N 50°36' W 001°01'0 0.0
2014-Jul-29 21:31N 50°36' W 001°01'0 0.0
2014-Jul-29 20:31N 50°36' W 001°01'0 0.0
2014-Jul-29 19:31N 50°36' W 001°01'0 0.1
2014-Jul-29 18:31N 50°36' W 001°01'0 0.3
2014-Jul-29 17:31N 50°36' W 001°01'0 0.0
2014-Jul-29 16:31N 50°36' W 001°02'0 0.0
2014-Jul-29 15:31N 50°36' W 001°02'0 0.0
2014-Jul-29 14:31N 50°36' W 001°02'0 0.1
2014-Jul-29 13:31N 50°36' W 001°02'0 0.1
2014-Jul-29 12:31N 50°36' W 001°01'0 0.3
2014-Jul-29 11:31N 50°36' W 001°01'0 0.0
2014-Jul-29 10:31N 50°36' W 001°01'0 0.0
2014-Jul-29 09:31N 50°36' W 001°01'0 0.0
2014-Jul-29 08:31N 50°36' W 001°01'0 0.0
2014-Jul-29 07:31N 50°36' W 001°01'0 0.2
2014-Jul-29 06:31N 50°36' W 001°01'0 0.3
2014-Jul-29 05:31N 50°36' W 001°02'0 0.0
2014-Jul-29 04:31N 50°36' W 001°02'0 0.0
2014-Jul-29 03:31N 50°36' W 001°02'0 0.0
2014-Jul-29 02:31N 50°36' W 001°02'0 0.0
2014-Jul-29 01:31N 50°36' W 001°02'0 0.1
2014-Jul-29 00:31N 50°36' W 001°01'0 0.3
2014-Jul-28 23:31N 50°36' W 001°01'0 0.0
2014-Jul-28 22:31N 50°36' W 001°01'0 0.0
2014-Jul-28 21:31N 50°36' W 001°01'0 0.0
2014-Jul-28 20:31N 50°36' W 001°01'0 0.0
2014-Jul-28 19:31N 50°36' W 001°01'0 0.0
2014-Jul-28 18:31N 50°36' W 001°01'0 0.3
2014-Jul-28 17:31N 50°36' W 001°01'0 0.0
2014-Jul-28 16:31N 50°36' W 001°01'0 0.0
2014-Jul-28 15:31N 50°36' W 001°02'0 0.0
2014-Jul-28 14:31N 50°36' W 001°02'0 0.0
2014-Jul-28 13:31N 50°36' W 001°01'0 0.0
2014-Jul-28 12:31N 50°36' W 001°01'0 0.2
2014-Jul-28 11:31N 50°36' W 001°01'0 0.2
2014-Jul-28 10:31N 50°36' W 001°01'0 0.1
2014-Jul-28 09:31N 50°36' W 001°01'0 0.0
2014-Jul-28 08:22N 50°36' W 001°01'0 0.1
2014-Jul-28 07:31N 50°36' W 001°01'0 0.1
2014-Jul-28 06:25N 50°36' W 001°01'0 0.3
2014-Jul-28 05:31N 50°36' W 001°01'0 0.1
2014-Jul-28 04:31N 50°36' W 001°02'0 0.0
2014-Jul-28 03:31N 50°36' W 001°02'0 0.0
2014-Jul-28 02:31N 50°36' W 001°02'0 0.0
2014-Jul-28 01:31N 50°36' W 001°02'0 0.0
2014-Jul-28 00:31N 50°36' W 001°02'0 0.3
2014-Jul-27 23:31N 50°36' W 001°01'0 0.3
2014-Jul-27 22:31N 50°36' W 001°01'0 0.0
2014-Jul-27 21:31N 50°36' W 001°01'0 0.0
2014-Jul-27 20:31N 50°36' W 001°01'0 0.0
2014-Jul-27 19:31N 50°36' W 001°01'0 0.0
2014-Jul-27 18:31N 50°36' W 001°01'0 0.1
2014-Jul-27 17:31N 50°36' W 001°01'  
Track history (hours):
 
Tides and Currents Weather Stations Pressure Air Temp Water Temp Dewpoint Dewpoint Depression Visibility Wind Speed Wind Dir Waves Ship Positions

Aegean Navigator

Last reported at 2014-Aug-06 16:33 UTC. Time now 2014-Aug-20 10:45 UTC.
Position N 50°31' W 001°06'.
Warning: this ship's position is 13 days out of date.

Length 274 m; draft 9 m.

Type: Ship. MMSI: 240634000.

Date/timePositionNaut miles runAvg speedWind from/ knotsBaromVisibWave heightAir tempDewpointWater temp
2014-Aug-06 16:33N 50°31' W 001°06'6 6.1
2014-Aug-06 15:31N 50°36' W 001°01'0 0.1
2014-Aug-06 14:31N 50°36' W 001°01'0 0.1
2014-Aug-06 13:31N 50°36' W 001°01'0 0.0
2014-Aug-06 12:31N 50°36' W 001°01'0 0.1
2014-Aug-06 11:31N 50°36' W 001°01'0 0.2
2014-Aug-06 10:31N 50°36' W 001°01'0 0.1
2014-Aug-06 09:31N 50°36' W 001°01'0 0.1
2014-Aug-06 08:31N 50°36' W 001°01'0 0.0
2014-Aug-06 07:31N 50°36' W 001°01'0 0.1
2014-Aug-06 06:33N 50°36' W 001°01'6 6.2
2014-Aug-06 05:33N 50°42' W 000°58'1313.0
2014-Aug-06 04:33N 50°47' W 001°18'4 3.8
2014-Aug-06 03:32N 50°50' W 001°20'0 0.0
2014-Aug-06 02:32N 50°50' W 001°20'0 0.0
2014-Aug-06 01:32N 50°50' W 001°20'0 0.0
2014-Aug-06 00:32N 50°50' W 001°20'0 0.0
2014-Aug-05 23:33N 50°50' W 001°20'0 0.0
2014-Aug-05 22:32N 50°50' W 001°20'0 0.0
2014-Aug-05 21:32N 50°50' W 001°20'0 0.0
2014-Aug-05 20:32N 50°50' W 001°20'0 0.0
2014-Aug-05 19:32N 50°50' W 001°20'0 0.0
2014-Aug-05 18:32N 50°50' W 001°20'0 0.0
2014-Aug-05 17:32N 50°50' W 001°20'0 0.0
2014-Aug-05 16:32N 50°50' W 001°20'0 0.0
2014-Aug-05 15:32N 50°50' W 001°20'0 0.0
2014-Aug-05 14:32N 50°50' W 001°20'0 0.0
2014-Aug-05 13:32N 50°50' W 001°20'0 0.0
2014-Aug-05 12:32N 50°50' W 001°20'0 0.0
2014-Aug-05 11:32N 50°50' W 001°20'0 0.1
2014-Aug-05 10:32N 50°50' W 001°20'0 0.0
2014-Aug-05 09:32N 50°50' W 001°20'0 0.0
2014-Aug-05 08:32N 50°50' W 001°20'0 0.0
2014-Aug-05 07:32N 50°50' W 001°20'0 0.0
2014-Aug-05 06:32N 50°50' W 001°20'0 0.0
2014-Aug-05 05:32N 50°50' W 001°20'0 0.0
2014-Aug-05 04:32N 50°50' W 001°20'0 0.0
2014-Aug-05 03:33N 50°50' W 001°20'0 0.0
2014-Aug-05 02:32N 50°50' W 001°20'0 0.0
2014-Aug-05 01:33N 50°50' W 001°20'0 0.0
2014-Aug-05 00:32N 50°50' W 001°20'0 0.0
2014-Aug-04 23:33N 50°50' W 001°20'0 0.0
2014-Aug-04 22:32N 50°50' W 001°20'0 0.0
2014-Aug-04 21:32N 50°50' W 001°20'0 0.0
2014-Aug-04 20:32N 50°50' W 001°20'0 0.0
2014-Aug-04 19:32N 50°50' W 001°20'0 0.0
2014-Aug-04 18:32N 50°50' W 001°20'0 0.0
2014-Aug-04 17:32N 50°50' W 001°20'0 0.1
2014-Aug-04 16:32N 50°50' W 001°19'2 2.4
2014-Aug-04 15:33N 50°48' W 001°18'5 5.4
2014-Aug-04 14:34N 50°46' W 001°10'9 8.9
2014-Aug-04 13:34N 50°42' W 000°57'6 6.5
2014-Aug-04 12:34N 50°36' W 000°60'1 0.4
2014-Aug-04 09:31N 50°36' W 001°01'0 0.1
2014-Aug-04 08:31N 50°36' W 001°01'0 0.0
2014-Aug-04 07:31N 50°36' W 001°01'0 0.0
2014-Aug-04 06:31N 50°36' W 001°01'0 0.0
2014-Aug-04 05:31N 50°36' W 001°01'0 0.0
2014-Aug-04 04:31N 50°36' W 001°01'0 0.0
2014-Aug-03 21:16N 50°36' W 001°01'0 0.4
2014-Aug-03 20:31N 50°36' W 001°01'0 0.1
2014-Aug-03 19:31N 50°36' W 001°01'0 0.0
2014-Aug-03 17:25N 50°36' W 001°01'0 0.1
2014-Aug-03 11:28N 50°36' W 001°01'0 0.0
2014-Aug-03 10:31N 50°36' W 001°01'0 0.0
2014-Aug-03 09:31N 50°36' W 001°01'0 0.3
2014-Aug-03 08:31N 50°36' W 001°01'0 0.1
2014-Aug-03 07:31N 50°36' W 001°01'0 0.0
2014-Aug-03 06:31N 50°36' W 001°01'0 0.0
2014-Aug-03 05:31N 50°36' W 001°02'0 0.0
2014-Aug-03 04:31N 50°36' W 001°02'0 0.2
2014-Aug-03 03:31N 50°36' W 001°01'0 0.3
2014-Aug-03 02:31N 50°36' W 001°01'0 0.0
2014-Aug-03 01:31N 50°36' W 001°01'0 0.0
2014-Aug-03 00:25N 50°36' W 001°01'0 0.0
2014-Aug-02 23:31N 50°36' W 001°01'0 0.0
2014-Aug-02 22:31N 50°36' W 001°01'0 0.0
2014-Aug-02 21:31N 50°36' W 001°01'0 0.1
2014-Aug-02 20:31N 50°36' W 001°01'0 0.3
2014-Aug-02 19:31N 50°36' W 001°01'0 0.0
2014-Aug-02 18:31N 50°36' W 001°01'0 0.0
2014-Aug-02 17:31N 50°36' W 001°01'0 0.0
2014-Aug-02 16:31N 50°36' W 001°01'0 0.0
2014-Aug-02 15:31N 50°36' W 001°01'0 0.3
2014-Aug-02 14:31N 50°36' W 001°01'0 0.1
2014-Aug-02 13:31N 50°36' W 001°01'0 0.0
2014-Aug-02 12:31N 50°36' W 001°01'0 0.0
2014-Aug-02 11:31N 50°36' W 001°01'0 0.0
2014-Aug-02 10:31N 50°36' W 001°01'0 0.1
2014-Aug-02 09:31N 50°36' W 001°01'0 0.1
2014-Aug-02 08:31N 50°36' W 001°01'0 0.3
2014-Aug-02 07:31N 50°36' W 001°01'0 0.0
2014-Aug-02 06:31N 50°36' W 001°01'0 0.0
2014-Aug-02 05:31N 50°36' W 001°01'0 0.0
2014-Aug-02 04:31N 50°36' W 001°01'0 0.0
2014-Aug-02 03:31N 50°36' W 001°01'0 0.1
2014-Aug-02 02:31N 50°36' W 001°01'0 0.3
2014-Aug-02 01:31N 50°36' W 001°01'0 0.0
2014-Aug-02 00:31N 50°36' W 001°01'0 0.0
2014-Aug-01 23:31N 50°36' W 001°01'0 0.0
2014-Aug-01 22:31N 50°36' W 001°01'0 0.0
2014-Aug-01 21:31N 50°36' W 001°01'0 0.1
2014-Aug-01 20:31N 50°36' W 001°01'0 0.3
2014-Aug-01 19:31N 50°36' W 001°01'0 0.0
2014-Aug-01 18:31N 50°36' W 001°01'0 0.0
2014-Aug-01 17:31N 50°36' W 001°01'0 0.0
2014-Aug-01 16:31N 50°36' W 001°01'0 0.0
2014-Aug-01 15:31N 50°36' W 001°01'0 0.1
2014-Aug-01 14:31N 50°36' W 001°01'0 0.3
2014-Aug-01 13:31N 50°36' W 001°01'0 0.0
2014-Aug-01 12:31N 50°36' W 001°01'0 0.1
2014-Aug-01 11:28N 50°36' W 001°01'0 0.0
2014-Aug-01 10:31N 50°36' W 001°01'0 0.0
2014-Aug-01 09:31N 50°36' W 001°01'0 0.0
2014-Aug-01 08:31N 50°36' W 001°01'0 0.3
2014-Aug-01 07:31N 50°36' W 001°01'0 0.1
2014-Aug-01 06:31N 50°36' W 001°01'0 0.0
2014-Aug-01 05:31N 50°36' W 001°01'0 0.0
2014-Aug-01 04:31N 50°36' W 001°02'0 0.0
2014-Aug-01 03:31N 50°36' W 001°02'0 0.0
2014-Aug-01 02:31N 50°36' W 001°01'0 0.4
2014-Aug-01 01:31N 50°36' W 001°01'0 0.0
2014-Aug-01 00:31N 50°36' W 001°01'0 0.0
2014-Jul-31 23:28N 50°36' W 001°01'0 0.0
2014-Jul-31 22:31N 50°36' W 001°01'0 0.0
2014-Jul-31 21:31N 50°36' W 001°01'0 0.0
2014-Jul-31 20:31N 50°36' W 001°01'0 0.2
2014-Jul-31 19:31N 50°36' W 001°01'0 0.3
2014-Jul-31 18:31N 50°36' W 001°01'0 0.0
2014-Jul-31 17:28N 50°36' W 001°01'0 0.0
2014-Jul-31 16:31N 50°36' W 001°01'0 0.0
2014-Jul-31 15:31N 50°36' W 001°01'0 0.0
2014-Jul-31 14:31N 50°36' W 001°01'0 0.3
2014-Jul-31 13:13N 50°36' W 001°01'0 0.0
2014-Jul-31 12:31N 50°36' W 001°01'0 0.1
2014-Jul-31 11:31N 50°36' W 001°01'0 0.0
2014-Jul-31 10:31N 50°36' W 001°01'0 0.0
2014-Jul-31 09:28N 50°36' W 001°01'0 0.0
2014-Jul-31 08:28N 50°36' W 001°01'0 0.3
2014-Jul-31 07:31N 50°36' W 001°01'0 0.2
2014-Jul-31 06:31N 50°36' W 001°02'0 0.0
2014-Jul-31 05:31N 50°36' W 001°02'0 0.0
2014-Jul-31 04:31N 50°36' W 001°02'0 0.0
2014-Jul-31 03:31N 50°36' W 001°02'0 0.0
2014-Jul-31 02:31N 50°36' W 001°02'0 0.1
2014-Jul-31 01:31N 50°36' W 001°01'0 0.3
2014-Jul-31 00:31N 50°36' W 001°01'0 0.1
2014-Jul-30 23:31N 50°36' W 001°01'0 0.0
2014-Jul-30 22:31N 50°36' W 001°01'0 0.1
2014-Jul-30 21:31N 50°36' W 001°01'0 0.0
2014-Jul-30 20:31N 50°36' W 001°01'0 0.0
2014-Jul-30 19:31N 50°36' W 001°01'0 0.3
2014-Jul-30 18:31N 50°36' W 001°01'0 0.1
2014-Jul-30 17:31N 50°36' W 001°01'0 0.0
2014-Jul-30 16:28N 50°36' W 001°02'0 0.0
2014-Jul-30 15:31N 50°36' W 001°02'0 0.0
2014-Jul-30 14:31N 50°36' W 001°02'0 0.0
2014-Jul-30 13:31N 50°36' W 001°02'0 0.3
2014-Jul-30 12:31N 50°36' W 001°01'0 0.0
2014-Jul-30 11:28N 50°36' W 001°01'0 0.0
2014-Jul-30 10:31N 50°36' W 001°01'0 0.0
2014-Jul-30 09:31N 50°36' W 001°01'0 0.1
2014-Jul-30 08:31N 50°36' W 001°01'0 0.0
2014-Jul-30 07:31N 50°36' W 001°01'0 0.3
2014-Jul-30 06:31N 50°36' W 001°01'0 0.1
2014-Jul-30 05:31N 50°36' W 001°02'0 0.0
2014-Jul-30 04:31N 50°36' W 001°02'0 0.0
2014-Jul-30 03:31N 50°36' W 001°02'0 0.0
2014-Jul-30 02:31N 50°36' W 001°02'0 0.1
2014-Jul-30 01:31N 50°36' W 001°02'0 0.2
2014-Jul-30 00:31N 50°36' W 001°01'0 0.3
2014-Jul-29 23:31N 50°36' W 001°01'0 0.0
2014-Jul-29 22:31N 50°36' W 001°01'0 0.0
2014-Jul-29 21:31N 50°36' W 001°01'0 0.0
2014-Jul-29 20:31N 50°36' W 001°01'0 0.0
2014-Jul-29 19:31N 50°36' W 001°01'0 0.1
2014-Jul-29 18:31N 50°36' W 001°01'0 0.3
2014-Jul-29 17:31N 50°36' W 001°01'0 0.0
2014-Jul-29 16:31N 50°36' W 001°02'0 0.0
2014-Jul-29 15:31N 50°36' W 001°02'0 0.0
2014-Jul-29 14:31N 50°36' W 001°02'0 0.1
2014-Jul-29 13:31N 50°36' W 001°02'0 0.1
2014-Jul-29 12:31N 50°36' W 001°01'0 0.3
2014-Jul-29 11:31N 50°36' W 001°01'0 0.0
2014-Jul-29 10:31N 50°36' W 001°01'0 0.0
2014-Jul-29 09:31N 50°36' W 001°01'0 0.0
2014-Jul-29 08:31N 50°36' W 001°01'0 0.0
2014-Jul-29 07:31N 50°36' W 001°01'0 0.2
2014-Jul-29 06:31N 50°36' W 001°01'0 0.3
2014-Jul-29 05:31N 50°36' W 001°02'0 0.0
2014-Jul-29 04:31N 50°36' W 001°02'0 0.0
2014-Jul-29 03:31N 50°36' W 001°02'0 0.0
2014-Jul-29 02:31N 50°36' W 001°02'0 0.0
2014-Jul-29 01:31N 50°36' W 001°02'0 0.1
2014-Jul-29 00:31N 50°36' W 001°01'0 0.3
2014-Jul-28 23:31N 50°36' W 001°01'0 0.0
2014-Jul-28 22:31N 50°36' W 001°01'0 0.0
2014-Jul-28 21:31N 50°36' W 001°01'0 0.0
2014-Jul-28 20:31N 50°36' W 001°01'0 0.0
2014-Jul-28 19:31N 50°36' W 001°01'0 0.0
2014-Jul-28 18:31N 50°36' W 001°01'0 0.3
2014-Jul-28 17:31N 50°36' W 001°01'0 0.0
2014-Jul-28 16:31N 50°36' W 001°01'0 0.0
2014-Jul-28 15:31N 50°36' W 001°02'0 0.0
2014-Jul-28 14:31N 50°36' W 001°02'0 0.0
2014-Jul-28 13:31N 50°36' W 001°01'0 0.0
2014-Jul-28 12:31N 50°36' W 001°01'0 0.2
2014-Jul-28 11:31N 50°36' W 001°01'0 0.2
2014-Jul-28 10:31N 50°36' W 001°01'0 0.1
2014-Jul-28 09:31N 50°36' W 001°01'0 0.0
2014-Jul-28 08:22N 50°36' W 001°01'0 0.1
2014-Jul-28 07:31N 50°36' W 001°01'0 0.1
2014-Jul-28 06:25N 50°36' W 001°01'0 0.3
2014-Jul-28 05:31N 50°36' W 001°01'0 0.1
2014-Jul-28 04:31N 50°36' W 001°02'0 0.0
2014-Jul-28 03:31N 50°36' W 001°02'0 0.0
2014-Jul-28 02:31N 50°36' W 001°02'0 0.0
2014-Jul-28 01:31N 50°36' W 001°02'0 0.0
2014-Jul-28 00:31N 50°36' W 001°02'0 0.3
2014-Jul-27 23:31N 50°36' W 001°01'0 0.3
2014-Jul-27 22:31N 50°36' W 001°01'0 0.0
2014-Jul-27 21:31N 50°36' W 001°01'0 0.0
2014-Jul-27 20:31N 50°36' W 001°01'0 0.0
2014-Jul-27 19:31N 50°36' W 001°01'0 0.0
2014-Jul-27 18:31N 50°36' W 001°01'0 0.1
2014-Jul-27 17:31N 50°36' W 001°01'  

Dump ship's entire track history